sensor_id;sensor_type;location;lat;lon;timestamp;P1;durP1;ratioP1;P2;durP2;ratioP2
19778;SDS011;10049;59.306;18.090;2023-10-13T00:02:01;1.48;;;0.43;;
19778;SDS011;10049;59.306;18.090;2023-10-13T00:04:30;1.27;;;0.50;;
19778;SDS011;10049;59.306;18.090;2023-10-13T00:06:58;1.27;;;0.40;;
19778;SDS011;10049;59.306;18.090;2023-10-13T00:09:29;0.17;;;0.17;;
19778;SDS011;10049;59.306;18.090;2023-10-13T00:11:58;2.63;;;0.40;;
19778;SDS011;10049;59.306;18.090;2023-10-13T00:14:26;2.97;;;0.40;;
19778;SDS011;10049;59.306;18.090;2023-10-13T00:16:59;0.77;;;0.30;;
19778;SDS011;10049;59.306;18.090;2023-10-13T00:19:29;2.40;;;0.50;;
19778;SDS011;10049;59.306;18.090;2023-10-13T00:22:04;0.38;;;0.32;;
19778;SDS011;10049;59.306;18.090;2023-10-13T00:24:37;4.03;;;0.43;;
19778;SDS011;10049;59.306;18.090;2023-10-13T00:27:10;1.95;;;0.40;;
19778;SDS011;10049;59.306;18.090;2023-10-13T00:29:53;0.73;;;0.50;;
19778;SDS011;10049;59.306;18.090;2023-10-13T00:32:40;0.77;;;0.40;;
19778;SDS011;10049;59.306;18.090;2023-10-13T00:35:09;1.15;;;0.40;;
19778;SDS011;10049;59.306;18.090;2023-10-13T00:37:50;0.50;;;0.30;;
19778;SDS011;10049;59.306;18.090;2023-10-13T00:40:21;0.98;;;0.40;;
19778;SDS011;10049;59.306;18.090;2023-10-13T00:43:05;0.45;;;0.30;;
19778;SDS011;10049;59.306;18.090;2023-10-13T00:45:47;0.55;;;0.35;;
19778;SDS011;10049;59.306;18.090;2023-10-13T00:48:20;1.35;;;0.65;;
19778;SDS011;10049;59.306;18.090;2023-10-13T00:50:51;1.20;;;0.30;;
19778;SDS011;10049;59.306;18.090;2023-10-13T00:53:22;4.28;;;0.40;;
19778;SDS011;10049;59.306;18.090;2023-10-13T00:55:51;1.70;;;0.38;;
19778;SDS011;10049;59.306;18.090;2023-10-13T00:58:22;1.33;;;0.30;;
19778;SDS011;10049;59.306;18.090;2023-10-13T01:00:50;0.60;;;0.32;;
19778;SDS011;10049;59.306;18.090;2023-10-13T01:03:42;0.77;;;0.30;;
19778;SDS011;10049;59.306;18.090;2023-10-13T01:06:09;0.30;;;0.22;;
19778;SDS011;10049;59.306;18.090;2023-10-13T01:08:56;4.18;;;0.47;;
19778;SDS011;10049;59.306;18.090;2023-10-13T01:11:38;3.90;;;0.32;;
19778;SDS011;10049;59.306;18.090;2023-10-13T01:14:05;1.42;;;0.50;;
19778;SDS011;10049;59.306;18.090;2023-10-13T01:16:33;0.93;;;0.32;;
19778;SDS011;10049;59.306;18.090;2023-10-13T01:19:01;0.43;;;0.32;;
19778;SDS011;10049;59.306;18.090;2023-10-13T01:21:30;3.72;;;0.40;;
19778;SDS011;10049;59.306;18.090;2023-10-13T01:26:45;0.70;;;0.40;;
19778;SDS011;10049;59.306;18.090;2023-10-13T01:29:16;0.93;;;0.43;;
19778;SDS011;10049;59.306;18.090;2023-10-13T01:31:54;4.13;;;0.40;;
19778;SDS011;10049;59.306;18.090;2023-10-13T01:34:20;8.77;;;0.35;;
19778;SDS011;10049;59.306;18.090;2023-10-13T01:36:48;0.30;;;0.30;;
19778;SDS011;10049;59.306;18.090;2023-10-13T01:39:16;0.80;;;0.50;;
19778;SDS011;10049;59.306;18.090;2023-10-13T01:41:48;0.30;;;0.30;;
19778;SDS011;10049;59.306;18.090;2023-10-13T01:44:20;0.20;;;0.20;;
19778;SDS011;10049;59.306;18.090;2023-10-13T01:46:48;1.30;;;0.30;;
19778;SDS011;10049;59.306;18.090;2023-10-13T01:49:17;0.98;;;0.38;;
19778;SDS011;10049;59.306;18.090;2023-10-13T01:51:44;1.65;;;0.43;;
19778;SDS011;10049;59.306;18.090;2023-10-13T01:54:12;0.50;;;0.40;;
19778;SDS011;10049;59.306;18.090;2023-10-13T01:56:40;2.97;;;0.35;;
19778;SDS011;10049;59.306;18.090;2023-10-13T01:59:15;0.30;;;0.30;;
19778;SDS011;10049;59.306;18.090;2023-10-13T02:01:41;1.00;;;0.40;;
19778;SDS011;10049;59.306;18.090;2023-10-13T02:04:09;2.05;;;0.40;;
19778;SDS011;10049;59.306;18.090;2023-10-13T02:06:37;0.93;;;0.30;;
19778;SDS011;10049;59.306;18.090;2023-10-13T02:09:04;0.30;;;0.30;;
19778;SDS011;10049;59.306;18.090;2023-10-13T02:11:38;1.05;;;0.40;;
19778;SDS011;10049;59.306;18.090;2023-10-13T02:14:04;1.40;;;0.30;;
19778;SDS011;10049;59.306;18.090;2023-10-13T02:16:33;0.88;;;0.38;;
19778;SDS011;10049;59.306;18.090;2023-10-13T02:19:02;0.85;;;0.50;;
19778;SDS011;10049;59.306;18.090;2023-10-13T02:21:41;1.00;;;0.47;;
19778;SDS011;10049;59.306;18.090;2023-10-13T02:24:10;2.88;;;0.50;;
19778;SDS011;10049;59.306;18.090;2023-10-13T02:26:43;1.52;;;0.52;;
19778;SDS011;10049;59.306;18.090;2023-10-13T02:29:10;8.02;;;0.50;;
19778;SDS011;10049;59.306;18.090;2023-10-13T02:31:43;3.45;;;0.60;;
19778;SDS011;10049;59.306;18.090;2023-10-13T02:34:19;0.47;;;0.30;;
19778;SDS011;10049;59.306;18.090;2023-10-13T02:36:48;0.32;;;0.32;;
19778;SDS011;10049;59.306;18.090;2023-10-13T02:39:14;1.08;;;0.50;;
19778;SDS011;10049;59.306;18.090;2023-10-13T02:41:50;0.32;;;0.22;;
19778;SDS011;10049;59.306;18.090;2023-10-13T02:44:16;0.77;;;0.38;;
19778;SDS011;10049;59.306;18.090;2023-10-13T02:46:59;1.23;;;0.40;;
19778;SDS011;10049;59.306;18.090;2023-10-13T02:49:31;3.78;;;0.50;;
19778;SDS011;10049;59.306;18.090;2023-10-13T02:51:59;0.20;;;0.20;;
19778;SDS011;10049;59.306;18.090;2023-10-13T02:54:32;0.57;;;0.32;;
19778;SDS011;10049;59.306;18.090;2023-10-13T02:57:04;0.30;;;0.30;;
19778;SDS011;10049;59.306;18.090;2023-10-13T02:59:32;1.65;;;0.80;;
19778;SDS011;10049;59.306;18.090;2023-10-13T03:02:07;1.38;;;0.40;;
19778;SDS011;10049;59.306;18.090;2023-10-13T03:04:49;4.00;;;0.40;;
19778;SDS011;10049;59.306;18.090;2023-10-13T03:07:16;4.40;;;0.40;;
19778;SDS011;10049;59.306;18.090;2023-10-13T03:09:48;0.55;;;0.40;;
19778;SDS011;10049;59.306;18.090;2023-10-13T03:12:17;1.02;;;0.50;;
19778;SDS011;10049;59.306;18.090;2023-10-13T03:14:45;0.73;;;0.35;;
19778;SDS011;10049;59.306;18.090;2023-10-13T03:17:27;0.95;;;0.40;;
19778;SDS011;10049;59.306;18.090;2023-10-13T03:19:59;1.52;;;0.40;;
19778;SDS011;10049;59.306;18.090;2023-10-13T03:22:26;1.60;;;0.50;;
19778;SDS011;10049;59.306;18.090;2023-10-13T03:24:57;3.97;;;0.60;;
19778;SDS011;10049;59.306;18.090;2023-10-13T03:27:30;1.13;;;0.32;;
19778;SDS011;10049;59.306;18.090;2023-10-13T03:30:25;3.03;;;0.50;;
19778;SDS011;10049;59.306;18.090;2023-10-13T03:33:02;1.17;;;0.47;;
19778;SDS011;10049;59.306;18.090;2023-10-13T03:35:34;2.15;;;0.60;;
19778;SDS011;10049;59.306;18.090;2023-10-13T03:38:06;2.78;;;0.50;;
19778;SDS011;10049;59.306;18.090;2023-10-13T03:40:42;2.00;;;0.40;;
19778;SDS011;10049;59.306;18.090;2023-10-13T03:43:14;0.65;;;0.40;;
19778;SDS011;10049;59.306;18.090;2023-10-13T03:45:47;1.10;;;0.40;;
19778;SDS011;10049;59.306;18.090;2023-10-13T03:48:19;1.08;;;0.52;;
19778;SDS011;10049;59.306;18.090;2023-10-13T03:50:55;1.27;;;0.40;;
19778;SDS011;10049;59.306;18.090;2023-10-13T03:53:28;2.75;;;0.50;;
19778;SDS011;10049;59.306;18.090;2023-10-13T03:55:58;2.17;;;0.50;;
19778;SDS011;10049;59.306;18.090;2023-10-13T03:58:38;0.70;;;0.52;;
19778;SDS011;10049;59.306;18.090;2023-10-13T04:01:11;1.13;;;0.60;;
19778;SDS011;10049;59.306;18.090;2023-10-13T04:03:45;0.45;;;0.30;;
19778;SDS011;10049;59.306;18.090;2023-10-13T04:06:28;4.85;;;0.50;;
19778;SDS011;10049;59.306;18.090;2023-10-13T04:09:30;0.77;;;0.50;;
19778;SDS011;10049;59.306;18.090;2023-10-13T04:12:16;0.95;;;0.47;;
19778;SDS011;10049;59.306;18.090;2023-10-13T04:15:14;0.57;;;0.40;;
19778;SDS011;10049;59.306;18.090;2023-10-13T04:17:46;1.48;;;0.40;;
19778;SDS011;10049;59.306;18.090;2023-10-13T04:20:16;1.48;;;0.57;;
19778;SDS011;10049;59.306;18.090;2023-10-13T04:23:12;4.38;;;0.50;;
19778;SDS011;10049;59.306;18.090;2023-10-13T04:25:56;2.28;;;0.50;;
19778;SDS011;10049;59.306;18.090;2023-10-13T04:28:46;1.90;;;0.50;;
19778;SDS011;10049;59.306;18.090;2023-10-13T04:31:16;1.08;;;0.50;;
19778;SDS011;10049;59.306;18.090;2023-10-13T04:34:06;3.03;;;0.60;;
19778;SDS011;10049;59.306;18.090;2023-10-13T04:36:41;1.13;;;0.47;;
19778;SDS011;10049;59.306;18.090;2023-10-13T04:39:10;0.80;;;0.50;;
19778;SDS011;10049;59.306;18.090;2023-10-13T04:44:26;0.43;;;0.40;;
19778;SDS011;10049;59.306;18.090;2023-10-13T04:47:11;0.90;;;0.40;;
19778;SDS011;10049;59.306;18.090;2023-10-13T04:49:46;1.58;;;0.55;;
19778;SDS011;10049;59.306;18.090;2023-10-13T04:52:17;5.28;;;0.60;;
19778;SDS011;10049;59.306;18.090;2023-10-13T04:55:07;1.45;;;0.63;;
19778;SDS011;10049;59.306;18.090;2023-10-13T04:57:58;1.35;;;0.63;;
19778;SDS011;10049;59.306;18.090;2023-10-13T05:01:02;1.35;;;0.60;;
19778;SDS011;10049;59.306;18.090;2023-10-13T05:04:02;1.42;;;0.60;;
19778;SDS011;10049;59.306;18.090;2023-10-13T05:06:46;1.27;;;0.50;;
19778;SDS011;10049;59.306;18.090;2023-10-13T05:09:31;0.75;;;0.52;;
19778;SDS011;10049;59.306;18.090;2023-10-13T05:12:16;1.98;;;0.50;;
19778;SDS011;10049;59.306;18.090;2023-10-13T05:15:01;2.47;;;0.50;;
19778;SDS011;10049;59.306;18.090;2023-10-13T05:17:52;1.35;;;0.60;;
19778;SDS011;10049;59.306;18.090;2023-10-13T05:20:39;1.05;;;0.40;;
19778;SDS011;10049;59.306;18.090;2023-10-13T05:23:24;1.50;;;0.57;;
19778;SDS011;10049;59.306;18.090;2023-10-13T05:26:09;4.03;;;0.60;;
19778;SDS011;10049;59.306;18.090;2023-10-13T05:28:54;3.13;;;0.43;;
19778;SDS011;10049;59.306;18.090;2023-10-13T05:31:39;3.05;;;0.73;;
19778;SDS011;10049;59.306;18.090;2023-10-13T05:34:26;4.63;;;0.68;;
19778;SDS011;10049;59.306;18.090;2023-10-13T05:37:11;6.03;;;0.55;;
19778;SDS011;10049;59.306;18.090;2023-10-13T05:39:56;6.07;;;0.73;;
19778;SDS011;10049;59.306;18.090;2023-10-13T05:42:41;1.23;;;0.50;;
19778;SDS011;10049;59.306;18.090;2023-10-13T05:45:26;1.45;;;0.68;;
19778;SDS011;10049;59.306;18.090;2023-10-13T05:48:26;1.95;;;0.65;;
19778;SDS011;10049;59.306;18.090;2023-10-13T05:51:22;1.35;;;0.60;;
19778;SDS011;10049;59.306;18.090;2023-10-13T05:54:10;1.70;;;0.50;;
19778;SDS011;10049;59.306;18.090;2023-10-13T05:56:55;1.10;;;0.60;;
19778;SDS011;10049;59.306;18.090;2023-10-13T05:59:41;2.53;;;0.68;;
19778;SDS011;10049;59.306;18.090;2023-10-13T06:02:27;2.28;;;0.73;;
19778;SDS011;10049;59.306;18.090;2023-10-13T06:05:13;2.15;;;0.50;;
19778;SDS011;10049;59.306;18.090;2023-10-13T06:07:59;5.28;;;0.70;;
19778;SDS011;10049;59.306;18.090;2023-10-13T06:10:44;0.73;;;0.60;;
19778;SDS011;10049;59.306;18.090;2023-10-13T06:13:29;4.00;;;0.95;;
19778;SDS011;10049;59.306;18.090;2023-10-13T06:16:26;2.15;;;0.80;;
19778;SDS011;10049;59.306;18.090;2023-10-13T06:19:11;5.97;;;0.70;;
19778;SDS011;10049;59.306;18.090;2023-10-13T06:21:56;2.72;;;0.70;;
19778;SDS011;10049;59.306;18.090;2023-10-13T06:24:42;2.65;;;0.80;;
19778;SDS011;10049;59.306;18.090;2023-10-13T06:27:28;2.20;;;0.80;;
19778;SDS011;10049;59.306;18.090;2023-10-13T06:30:13;4.25;;;0.60;;
19778;SDS011;10049;59.306;18.090;2023-10-13T06:32:42;2.22;;;0.75;;
19778;SDS011;10049;59.306;18.090;2023-10-13T06:35:11;1.65;;;0.75;;
19778;SDS011;10049;59.306;18.090;2023-10-13T06:37:48;2.17;;;0.52;;
19778;SDS011;10049;59.306;18.090;2023-10-13T06:40:20;2.50;;;0.77;;
19778;SDS011;10049;59.306;18.090;2023-10-13T06:43:01;2.80;;;0.68;;
19778;SDS011;10049;59.306;18.090;2023-10-13T06:45:42;3.08;;;0.68;;
19778;SDS011;10049;59.306;18.090;2023-10-13T06:48:15;1.33;;;0.55;;
19778;SDS011;10049;59.306;18.090;2023-10-13T06:50:47;1.73;;;0.80;;
19778;SDS011;10049;59.306;18.090;2023-10-13T06:53:16;3.22;;;0.85;;
19778;SDS011;10049;59.306;18.090;2023-10-13T06:55:46;1.98;;;0.70;;
19778;SDS011;10049;59.306;18.090;2023-10-13T06:58:18;5.85;;;0.82;;
19778;SDS011;10049;59.306;18.090;2023-10-13T07:00:50;1.48;;;0.70;;
19778;SDS011;10049;59.306;18.090;2023-10-13T07:03:21;2.65;;;0.65;;
19778;SDS011;10049;59.306;18.090;2023-10-13T07:05:50;4.18;;;0.80;;
19778;SDS011;10049;59.306;18.090;2023-10-13T07:08:19;3.15;;;1.08;;
19778;SDS011;10049;59.306;18.090;2023-10-13T07:10:48;2.75;;;0.90;;
19778;SDS011;10049;59.306;18.090;2023-10-13T07:13:27;2.47;;;0.95;;
19778;SDS011;10049;59.306;18.090;2023-10-13T07:15:55;3.80;;;0.80;;
19778;SDS011;10049;59.306;18.090;2023-10-13T07:18:31;4.32;;;0.75;;
19778;SDS011;10049;59.306;18.090;2023-10-13T07:21:02;2.40;;;0.60;;
19778;SDS011;10049;59.306;18.090;2023-10-13T07:23:34;1.58;;;0.60;;
19778;SDS011;10049;59.306;18.090;2023-10-13T07:26:05;1.55;;;0.70;;
19778;SDS011;10049;59.306;18.090;2023-10-13T07:28:33;2.05;;;0.80;;
19778;SDS011;10049;59.306;18.090;2023-10-13T07:31:08;8.50;;;0.98;;
19778;SDS011;10049;59.306;18.090;2023-10-13T07:33:40;1.90;;;0.77;;
19778;SDS011;10049;59.306;18.090;2023-10-13T07:36:09;4.07;;;0.90;;
19778;SDS011;10049;59.306;18.090;2023-10-13T07:38:53;4.13;;;0.98;;
19778;SDS011;10049;59.306;18.090;2023-10-13T07:41:46;1.73;;;0.63;;
19778;SDS011;10049;59.306;18.090;2023-10-13T07:44:17;2.88;;;0.93;;
19778;SDS011;10049;59.306;18.090;2023-10-13T07:46:50;3.33;;;0.82;;
19778;SDS011;10049;59.306;18.090;2023-10-13T07:49:25;3.38;;;0.95;;
19778;SDS011;10049;59.306;18.090;2023-10-13T07:51:56;2.92;;;0.85;;
19778;SDS011;10049;59.306;18.090;2023-10-13T07:54:26;3.13;;;0.80;;
19778;SDS011;10049;59.306;18.090;2023-10-13T07:56:56;2.85;;;1.13;;
19778;SDS011;10049;59.306;18.090;2023-10-13T07:59:32;2.58;;;0.90;;
19778;SDS011;10049;59.306;18.090;2023-10-13T08:02:00;1.48;;;0.60;;
19778;SDS011;10049;59.306;18.090;2023-10-13T08:04:39;4.47;;;0.70;;
19778;SDS011;10049;59.306;18.090;2023-10-13T08:07:07;1.60;;;0.70;;
19778;SDS011;10049;59.306;18.090;2023-10-13T08:09:40;4.20;;;0.75;;
19778;SDS011;10049;59.306;18.090;2023-10-13T08:12:18;1.98;;;0.70;;
19778;SDS011;10049;59.306;18.090;2023-10-13T08:14:48;1.35;;;0.60;;
19778;SDS011;10049;59.306;18.090;2023-10-13T08:17:34;5.45;;;0.68;;
19778;SDS011;10049;59.306;18.090;2023-10-13T08:20:03;1.73;;;0.60;;
19778;SDS011;10049;59.306;18.090;2023-10-13T08:22:37;4.72;;;0.95;;
19778;SDS011;10049;59.306;18.090;2023-10-13T08:25:13;1.77;;;0.90;;
19778;SDS011;10049;59.306;18.090;2023-10-13T08:27:51;9.50;;;1.23;;
19778;SDS011;10049;59.306;18.090;2023-10-13T08:30:36;3.88;;;0.95;;
19778;SDS011;10049;59.306;18.090;2023-10-13T08:33:17;2.10;;;0.70;;
19778;SDS011;10049;59.306;18.090;2023-10-13T08:35:51;5.53;;;1.05;;
19778;SDS011;10049;59.306;18.090;2023-10-13T08:38:43;5.63;;;0.75;;
19778;SDS011;10049;59.306;18.090;2023-10-13T08:41:18;4.25;;;1.20;;
19778;SDS011;10049;59.306;18.090;2023-10-13T08:43:58;3.05;;;0.90;;
19778;SDS011;10049;59.306;18.090;2023-10-13T08:46:30;5.00;;;0.80;;
19778;SDS011;10049;59.306;18.090;2023-10-13T08:49:25;2.40;;;0.90;;
19778;SDS011;10049;59.306;18.090;2023-10-13T08:51:54;9.13;;;1.13;;
19778;SDS011;10049;59.306;18.090;2023-10-13T08:54:52;6.85;;;1.15;;
19778;SDS011;10049;59.306;18.090;2023-10-13T08:57:38;4.15;;;0.88;;
19778;SDS011;10049;59.306;18.090;2023-10-13T09:00:16;3.38;;;0.88;;
19778;SDS011;10049;59.306;18.090;2023-10-13T09:02:53;4.40;;;0.90;;
19778;SDS011;10049;59.306;18.090;2023-10-13T09:05:41;4.13;;;1.10;;
19778;SDS011;10049;59.306;18.090;2023-10-13T09:08:26;2.88;;;0.80;;
19778;SDS011;10049;59.306;18.090;2023-10-13T09:11:01;4.85;;;0.80;;
19778;SDS011;10049;59.306;18.090;2023-10-13T09:13:36;6.10;;;1.30;;
19778;SDS011;10049;59.306;18.090;2023-10-13T09:16:11;2.00;;;0.93;;
19778;SDS011;10049;59.306;18.090;2023-10-13T09:19:09;3.85;;;1.00;;
19778;SDS011;10049;59.306;18.090;2023-10-13T09:21:37;3.20;;;0.75;;
19778;SDS011;10049;59.306;18.090;2023-10-13T09:24:19;3.85;;;1.05;;
19778;SDS011;10049;59.306;18.090;2023-10-13T09:26:55;4.53;;;0.90;;
19778;SDS011;10049;59.306;18.090;2023-10-13T09:29:26;4.85;;;1.00;;
19778;SDS011;10049;59.306;18.090;2023-10-13T09:32:00;1.55;;;0.68;;
19778;SDS011;10049;59.306;18.090;2023-10-13T09:34:28;4.03;;;1.10;;
19778;SDS011;10049;59.306;18.090;2023-10-13T09:36:59;5.97;;;1.20;;
19778;SDS011;10049;59.306;18.090;2023-10-13T09:39:30;3.97;;;1.17;;
19778;SDS011;10049;59.306;18.090;2023-10-13T09:42:10;4.50;;;0.95;;
19778;SDS011;10049;59.306;18.090;2023-10-13T09:44:37;4.75;;;0.93;;
19778;SDS011;10049;59.306;18.090;2023-10-13T09:47:08;3.08;;;0.85;;
19778;SDS011;10049;59.306;18.090;2023-10-13T09:49:43;3.60;;;0.93;;
19778;SDS011;10049;59.306;18.090;2023-10-13T09:52:11;4.70;;;1.25;;
19778;SDS011;10049;59.306;18.090;2023-10-13T09:54:44;2.88;;;1.15;;
19778;SDS011;10049;59.306;18.090;2023-10-13T09:57:24;7.57;;;1.40;;
19778;SDS011;10049;59.306;18.090;2023-10-13T10:00:00;3.60;;;1.00;;
19778;SDS011;10049;59.306;18.090;2023-10-13T10:02:33;2.30;;;0.95;;
19778;SDS011;10049;59.306;18.090;2023-10-13T10:05:08;3.97;;;0.95;;
19778;SDS011;10049;59.306;18.090;2023-10-13T10:07:54;4.07;;;1.13;;
19778;SDS011;10049;59.306;18.090;2023-10-13T10:10:25;4.70;;;1.15;;
19778;SDS011;10049;59.306;18.090;2023-10-13T10:12:59;6.85;;;1.02;;
19778;SDS011;10049;59.306;18.090;2023-10-13T10:15:29;6.50;;;1.17;;
19778;SDS011;10049;59.306;18.090;2023-10-13T10:18:02;5.80;;;1.15;;
19778;SDS011;10049;59.306;18.090;2023-10-13T10:20:31;4.78;;;1.13;;
19778;SDS011;10049;59.306;18.090;2023-10-13T10:23:05;5.35;;;1.20;;
19778;SDS011;10049;59.306;18.090;2023-10-13T10:25:38;3.35;;;1.00;;
19778;SDS011;10049;59.306;18.090;2023-10-13T10:28:10;3.15;;;0.90;;
19778;SDS011;10049;59.306;18.090;2023-10-13T10:30:41;2.60;;;1.10;;
19778;SDS011;10049;59.306;18.090;2023-10-13T10:33:13;6.57;;;1.20;;
19778;SDS011;10049;59.306;18.090;2023-10-13T10:35:41;2.40;;;1.40;;
19778;SDS011;10049;59.306;18.090;2023-10-13T10:38:12;7.80;;;1.10;;
19778;SDS011;10049;59.306;18.090;2023-10-13T10:40:52;2.63;;;1.00;;
19778;SDS011;10049;59.306;18.090;2023-10-13T10:43:26;4.10;;;1.00;;
19778;SDS011;10049;59.306;18.090;2023-10-13T10:46:07;4.50;;;0.82;;
19778;SDS011;10049;59.306;18.090;2023-10-13T10:48:37;8.52;;;1.20;;
19778;SDS011;10049;59.306;18.090;2023-10-13T10:51:08;6.20;;;0.88;;
19778;SDS011;10049;59.306;18.090;2023-10-13T10:53:47;6.75;;;1.13;;
19778;SDS011;10049;59.306;18.090;2023-10-13T10:56:18;5.00;;;1.45;;
19778;SDS011;10049;59.306;18.090;2023-10-13T10:58:46;3.75;;;1.10;;
19778;SDS011;10049;59.306;18.090;2023-10-13T11:01:13;2.53;;;0.75;;
19778;SDS011;10049;59.306;18.090;2023-10-13T11:03:58;5.07;;;0.95;;
19778;SDS011;10049;59.306;18.090;2023-10-13T11:06:34;5.43;;;1.23;;
19778;SDS011;10049;59.306;18.090;2023-10-13T11:09:15;5.85;;;1.00;;
19778;SDS011;10049;59.306;18.090;2023-10-13T11:11:57;3.83;;;0.80;;
19778;SDS011;10049;59.306;18.090;2023-10-13T11:14:29;3.22;;;1.00;;
19778;SDS011;10049;59.306;18.090;2023-10-13T11:17:04;5.03;;;1.00;;
19778;SDS011;10049;59.306;18.090;2023-10-13T11:19:41;5.55;;;1.20;;
19778;SDS011;10049;59.306;18.090;2023-10-13T11:22:10;3.72;;;1.08;;
19778;SDS011;10049;59.306;18.090;2023-10-13T11:24:54;3.95;;;1.38;;
19778;SDS011;10049;59.306;18.090;2023-10-13T11:27:28;5.78;;;1.20;;
19778;SDS011;10049;59.306;18.090;2023-10-13T11:30:12;5.88;;;1.45;;
19778;SDS011;10049;59.306;18.090;2023-10-13T11:32:41;4.93;;;1.17;;
19778;SDS011;10049;59.306;18.090;2023-10-13T11:35:14;4.85;;;1.20;;
19778;SDS011;10049;59.306;18.090;2023-10-13T11:37:48;5.18;;;1.23;;
19778;SDS011;10049;59.306;18.090;2023-10-13T11:40:23;5.40;;;1.27;;
19778;SDS011;10049;59.306;18.090;2023-10-13T11:43:04;5.20;;;1.20;;
19778;SDS011;10049;59.306;18.090;2023-10-13T11:45:40;4.55;;;1.20;;
19778;SDS011;10049;59.306;18.090;2023-10-13T11:48:29;4.50;;;1.50;;
19778;SDS011;10049;59.306;18.090;2023-10-13T11:51:03;5.72;;;1.17;;
19778;SDS011;10049;59.306;18.090;2023-10-13T11:53:42;4.65;;;1.23;;
19778;SDS011;10049;59.306;18.090;2023-10-13T11:56:17;8.13;;;1.73;;
19778;SDS011;10049;59.306;18.090;2023-10-13T11:58:46;6.97;;;1.35;;
19778;SDS011;10049;59.306;18.090;2023-10-13T12:01:14;5.05;;;1.13;;
19778;SDS011;10049;59.306;18.090;2023-10-13T12:04:06;9.13;;;1.35;;
19778;SDS011;10049;59.306;18.090;2023-10-13T12:06:52;4.57;;;1.30;;
19778;SDS011;10049;59.306;18.090;2023-10-13T12:09:40;4.00;;;1.15;;
19778;SDS011;10049;59.306;18.090;2023-10-13T12:12:28;8.25;;;1.48;;
19778;SDS011;10049;59.306;18.090;2023-10-13T12:15:06;3.53;;;1.20;;
19778;SDS011;10049;59.306;18.090;2023-10-13T12:17:40;5.35;;;1.20;;
19778;SDS011;10049;59.306;18.090;2023-10-13T12:20:11;6.32;;;1.48;;
19778;SDS011;10049;59.306;18.090;2023-10-13T12:22:58;4.75;;;1.08;;
19778;SDS011;10049;59.306;18.090;2023-10-13T12:25:37;6.28;;;1.30;;
19778;SDS011;10049;59.306;18.090;2023-10-13T12:28:20;8.93;;;1.10;;
19778;SDS011;10049;59.306;18.090;2023-10-13T12:31:03;3.70;;;0.90;;
19778;SDS011;10049;59.306;18.090;2023-10-13T12:33:36;5.63;;;1.17;;
19778;SDS011;10049;59.306;18.090;2023-10-13T12:36:05;7.20;;;1.38;;
19778;SDS011;10049;59.306;18.090;2023-10-13T12:38:49;4.15;;;1.20;;
19778;SDS011;10049;59.306;18.090;2023-10-13T12:41:34;4.90;;;1.25;;
19778;SDS011;10049;59.306;18.090;2023-10-13T12:44:19;9.68;;;1.33;;
19778;SDS011;10049;59.306;18.090;2023-10-13T12:47:04;5.85;;;1.27;;
19778;SDS011;10049;59.306;18.090;2023-10-13T12:49:49;5.82;;;1.10;;
19778;SDS011;10049;59.306;18.090;2023-10-13T12:52:23;4.95;;;1.38;;
19778;SDS011;10049;59.306;18.090;2023-10-13T12:55:00;3.10;;;0.80;;
19778;SDS011;10049;59.306;18.090;2023-10-13T12:57:35;4.03;;;1.08;;
19778;SDS011;10049;59.306;18.090;2023-10-13T13:00:09;5.32;;;1.08;;
19778;SDS011;10049;59.306;18.090;2023-10-13T13:02:46;4.30;;;1.30;;
19778;SDS011;10049;59.306;18.090;2023-10-13T13:05:21;4.45;;;1.23;;
19778;SDS011;10049;59.306;18.090;2023-10-13T13:07:53;5.05;;;1.55;;
19778;SDS011;10049;59.306;18.090;2023-10-13T13:10:22;4.95;;;1.35;;
19778;SDS011;10049;59.306;18.090;2023-10-13T13:13:00;6.05;;;1.40;;
19778;SDS011;10049;59.306;18.090;2023-10-13T13:15:30;5.65;;;1.42;;
19778;SDS011;10049;59.306;18.090;2023-10-13T13:17:58;6.07;;;1.27;;
19778;SDS011;10049;59.306;18.090;2023-10-13T13:20:35;6.85;;;1.27;;
19778;SDS011;10049;59.306;18.090;2023-10-13T13:23:04;8.82;;;1.50;;
19778;SDS011;10049;59.306;18.090;2023-10-13T13:25:34;5.72;;;1.88;;
19778;SDS011;10049;59.306;18.090;2023-10-13T13:28:07;4.32;;;1.00;;
19778;SDS011;10049;59.306;18.090;2023-10-13T13:30:36;6.53;;;1.83;;
19778;SDS011;10049;59.306;18.090;2023-10-13T13:33:19;4.18;;;1.13;;
19778;SDS011;10049;59.306;18.090;2023-10-13T13:35:52;6.22;;;1.27;;
19778;SDS011;10049;59.306;18.090;2023-10-13T13:38:20;5.15;;;1.58;;
19778;SDS011;10049;59.306;18.090;2023-10-13T13:40:54;4.40;;;1.08;;
19778;SDS011;10049;59.306;18.090;2023-10-13T13:43:21;5.93;;;1.33;;
19778;SDS011;10049;59.306;18.090;2023-10-13T13:46:02;6.32;;;1.55;;
19778;SDS011;10049;59.306;18.090;2023-10-13T13:48:35;5.22;;;1.38;;
19778;SDS011;10049;59.306;18.090;2023-10-13T13:51:03;3.50;;;1.15;;
19778;SDS011;10049;59.306;18.090;2023-10-13T13:53:38;5.22;;;1.38;;
19778;SDS011;10049;59.306;18.090;2023-10-13T13:56:12;4.03;;;1.17;;
19778;SDS011;10049;59.306;18.090;2023-10-13T13:58:46;5.80;;;1.23;;
19778;SDS011;10049;59.306;18.090;2023-10-13T14:01:15;4.90;;;1.27;;
19778;SDS011;10049;59.306;18.090;2023-10-13T14:03:44;4.72;;;1.30;;
19778;SDS011;10049;59.306;18.090;2023-10-13T14:06:12;9.63;;;1.42;;
19778;SDS011;10049;59.306;18.090;2023-10-13T14:08:46;6.20;;;1.35;;
19778;SDS011;10049;59.306;18.090;2023-10-13T14:11:17;5.45;;;1.30;;
19778;SDS011;10049;59.306;18.090;2023-10-13T14:14:06;3.80;;;1.45;;
19778;SDS011;10049;59.306;18.090;2023-10-13T14:16:54;7.28;;;1.42;;
19778;SDS011;10049;59.306;18.090;2023-10-13T14:19:31;7.88;;;1.30;;
19778;SDS011;10049;59.306;18.090;2023-10-13T14:22:06;7.25;;;1.40;;
19778;SDS011;10049;59.306;18.090;2023-10-13T14:24:37;4.57;;;1.52;;
19778;SDS011;10049;59.306;18.090;2023-10-13T14:27:14;4.78;;;1.48;;
19778;SDS011;10049;59.306;18.090;2023-10-13T14:29:49;7.22;;;1.50;;
19778;SDS011;10049;59.306;18.090;2023-10-13T14:32:20;9.30;;;1.77;;
19778;SDS011;10049;59.306;18.090;2023-10-13T14:35:05;5.68;;;1.40;;
19778;SDS011;10049;59.306;18.090;2023-10-13T14:37:40;5.35;;;1.35;;
19778;SDS011;10049;59.306;18.090;2023-10-13T14:40:08;5.68;;;1.45;;
19778;SDS011;10049;59.306;18.090;2023-10-13T14:42:39;10.15;;;1.80;;
19778;SDS011;10049;59.306;18.090;2023-10-13T14:45:07;4.97;;;1.55;;
19778;SDS011;10049;59.306;18.090;2023-10-13T14:47:38;7.30;;;1.75;;
19778;SDS011;10049;59.306;18.090;2023-10-13T14:50:06;9.35;;;1.65;;
19778;SDS011;10049;59.306;18.090;2023-10-13T14:52:41;10.05;;;1.50;;
19778;SDS011;10049;59.306;18.090;2023-10-13T14:55:09;5.30;;;1.60;;
19778;SDS011;10049;59.306;18.090;2023-10-13T14:57:45;4.97;;;1.38;;
19778;SDS011;10049;59.306;18.090;2023-10-13T15:00:15;10.60;;;1.55;;
19778;SDS011;10049;59.306;18.090;2023-10-13T15:02:50;7.47;;;1.50;;
19778;SDS011;10049;59.306;18.090;2023-10-13T15:05:18;9.57;;;2.35;;
19778;SDS011;10049;59.306;18.090;2023-10-13T15:07:45;3.72;;;1.30;;
19778;SDS011;10049;59.306;18.090;2023-10-13T15:10:13;7.30;;;1.52;;
19778;SDS011;10049;59.306;18.090;2023-10-13T15:12:43;8.15;;;1.73;;
19778;SDS011;10049;59.306;18.090;2023-10-13T15:15:12;6.82;;;1.58;;
19778;SDS011;10049;59.306;18.090;2023-10-13T15:17:41;8.10;;;1.98;;
19778;SDS011;10049;59.306;18.090;2023-10-13T15:20:09;7.97;;;1.88;;
19778;SDS011;10049;59.306;18.090;2023-10-13T15:22:41;11.35;;;2.10;;
19778;SDS011;10049;59.306;18.090;2023-10-13T15:25:09;6.47;;;1.98;;
19778;SDS011;10049;59.306;18.090;2023-10-13T15:27:46;7.88;;;1.55;;
19778;SDS011;10049;59.306;18.090;2023-10-13T15:30:22;11.68;;;1.90;;